Time;durP1;ratioP1;P1;durP2;ratioP2;P2;SDS_P1;SDS_P2;PMS_P1;PMS_P2;Temp;Humidity;BMP_temperature;BMP_pressure;BME280_temperature;BME280_humidity;BME280_pressure;Samples;Min_cycle;Max_cycle;Signal;HPM_P1;HPM_P2
2024/01/02 00:01:48;;;;;;;6.55;2.08;;;;;;;;;;5100632;27;41028;-76
2024/01/02 00:04:16;;;;;;;5.45;2.08;;;;;;;;;;5101735;27;41983;-77
2024/01/02 00:06:44;;;;;;;3.97;2.08;;;;;;;;;;5101429;27;38688;-77
2024/01/02 00:09:12;;;;;;;7.22;2.38;;;;;;;;;;5103220;27;41731;-82
2024/01/02 00:11:40;;;;;;;6.72;2.13;;;;;;;;;;5110139;27;42339;-80
2024/01/02 00:14:08;;;;;;;3.30;1.73;;;;;;;;;;5115579;27;40206;-80
2024/01/02 00:16:36;;;;;;;9.15;2.60;;;;;;;;;;5108894;27;40743;-80
2024/01/02 00:19:05;;;;;;;5.10;1.60;;;;;;;;;;5117024;27;40388;-80
2024/01/02 00:21:34;;;;;;;5.88;2.30;;;;;;;;;;5120187;27;41186;-80
2024/01/02 00:24:02;;;;;;;5.18;2.03;;;;;;;;;;5108510;27;42723;-80
2024/01/02 00:26:30;;;;;;;6.20;1.55;;;;;;;;;;5110858;27;40153;-80
2024/01/02 00:28:59;;;;;;;4.10;1.75;;;;;;;;;;5097320;28;40128;-80
2024/01/02 00:31:27;;;;;;;6.20;2.08;;;;;;;;;;5107983;27;43311;-80
2024/01/02 00:33:55;;;;;;;6.43;2.15;;;;;;;;;;5109151;28;38646;-80
2024/01/02 00:36:24;;;;;;;8.13;2.78;;;;;;;;;;5085373;28;41172;-80
2024/01/02 00:38:52;;;;;;;3.83;1.75;;;;;;;;;;5097916;28;40213;-80
2024/01/02 00:41:20;;;;;;;5.00;1.67;;;;;;;;;;5072545;28;41279;-80
2024/01/02 00:43:48;;;;;;;5.40;2.10;;;;;;;;;;5102405;27;43112;-80
2024/01/02 00:46:16;;;;;;;4.55;2.10;;;;;;;;;;5109198;27;40624;-80
2024/01/02 00:48:44;;;;;;;7.32;2.28;;;;;;;;;;5099047;27;42351;-80
2024/01/02 00:51:12;;;;;;;3.70;1.80;;;;;;;;;;5110115;27;43141;-80
2024/01/02 00:53:41;;;;;;;4.57;2.35;;;;;;;;;;5106640;27;40624;-80
2024/01/02 00:56:09;;;;;;;3.90;1.73;;;;;;;;;;5090917;28;40951;-80
2024/01/02 00:58:37;;;;;;;5.10;1.80;;;;;;;;;;5108968;27;41954;-80
2024/01/02 01:01:05;;;;;;;4.70;1.50;;;;;;;;;;5107215;27;41707;-80
2024/01/02 01:03:34;;;;;;;4.13;1.80;;;;;;;;;;5109166;27;42356;-80
2024/01/02 01:06:03;;;;;;;5.93;2.13;;;;;;;;;;5108477;27;40361;-80
2024/01/02 01:08:31;;;;;;;5.35;2.00;;;;;;;;;;5113172;27;42511;-80
2024/01/02 01:11:00;;;;;;;5.55;1.67;;;;;;;;;;5108548;27;40499;-80
2024/01/02 01:13:28;;;;;;;4.78;1.83;;;;;;;;;;5109638;27;39931;-80
2024/01/02 01:15:56;;;;;;;5.63;2.15;;;;;;;;;;5088295;28;40892;-80
2024/01/02 01:18:24;;;;;;;3.47;1.73;;;;;;;;;;5109417;27;42904;-80
2024/01/02 01:20:53;;;;;;;5.70;2.00;;;;;;;;;;5088714;27;39308;-80
2024/01/02 01:23:21;;;;;;;4.32;2.03;;;;;;;;;;5107876;27;41672;-80
2024/01/02 01:25:49;;;;;;;3.55;1.25;;;;;;;;;;5106161;27;40563;-80
2024/01/02 01:28:18;;;;;;;4.18;1.60;;;;;;;;;;5107399;27;41726;-79
2024/01/02 01:30:46;;;;;;;4.05;1.63;;;;;;;;;;5106078;27;42177;-79
2024/01/02 01:33:14;;;;;;;3.70;1.40;;;;;;;;;;5095156;27;40019;-80
2024/01/02 01:35:42;;;;;;;2.92;1.40;;;;;;;;;;5084166;27;40309;-80
2024/01/02 01:38:10;;;;;;;5.68;1.80;;;;;;;;;;5100975;27;42538;-80
2024/01/02 01:40:38;;;;;;;5.30;1.70;;;;;;;;;;5100223;27;40487;-80
2024/01/02 01:43:11;;;;;;;6.40;1.85;;;;;;;;;;5109127;27;42372;-80
2024/01/02 01:45:41;;;;;;;3.22;1.40;;;;;;;;;;5105885;28;39886;-80
2024/01/02 01:48:09;;;;;;;3.17;1.55;;;;;;;;;;5109613;27;40670;-80
2024/01/02 01:50:38;;;;;;;3.38;1.52;;;;;;;;;;5088675;27;40437;-80
2024/01/02 01:53:06;;;;;;;4.82;1.95;;;;;;;;;;5094868;27;39910;-80
2024/01/02 01:55:34;;;;;;;5.63;2.17;;;;;;;;;;5098303;27;40187;-80
2024/01/02 01:58:02;;;;;;;6.38;1.58;;;;;;;;;;5106209;27;42223;-80
2024/01/02 02:00:30;;;;;;;5.47;1.77;;;;;;;;;;5088616;27;40346;-80
2024/01/02 02:03:00;;;;;;;3.85;1.40;;;;;;;;;;5087836;27;40979;-80
2024/01/02 02:05:28;;;;;;;3.85;1.67;;;;;;;;;;5107705;27;42020;-80
2024/01/02 02:07:56;;;;;;;4.43;1.23;;;;;;;;;;5108219;27;41683;-80
2024/01/02 02:10:24;;;;;;;3.92;1.60;;;;;;;;;;5107099;27;43810;-80
2024/01/02 02:12:52;;;;;;;3.15;1.40;;;;;;;;;;5108018;27;40789;-80
2024/01/02 02:15:20;;;;;;;4.10;1.65;;;;;;;;;;5105043;27;39063;-80
2024/01/02 02:17:48;;;;;;;3.53;1.75;;;;;;;;;;5108993;27;41823;-80
2024/01/02 02:20:17;;;;;;;4.70;1.52;;;;;;;;;;5086636;27;38955;-79
2024/01/02 02:22:48;;;;;;;4.82;1.48;;;;;;;;;;5084000;27;40084;-80
2024/01/02 02:25:16;;;;;;;3.90;1.50;;;;;;;;;;5089281;28;42142;-80
2024/01/02 02:27:45;;;;;;;3.28;1.20;;;;;;;;;;5107401;27;40946;-80
2024/01/02 02:30:13;;;;;;;2.63;1.30;;;;;;;;;;5107040;28;41916;-80
2024/01/02 02:32:41;;;;;;;3.10;1.30;;;;;;;;;;5086069;28;39910;-80
2024/01/02 02:35:09;;;;;;;4.55;1.80;;;;;;;;;;5108322;27;41288;-80
2024/01/02 02:37:37;;;;;;;2.75;1.30;;;;;;;;;;5105367;27;42045;-80
2024/01/02 02:40:07;;;;;;;3.97;1.27;;;;;;;;;;5105164;28;40213;-80
2024/01/02 02:42:35;;;;;;;3.17;1.17;;;;;;;;;;5107891;27;42956;-80
2024/01/02 02:45:04;;;;;;;3.90;1.27;;;;;;;;;;5105812;27;41536;-80
2024/01/02 02:47:32;;;;;;;3.95;1.58;;;;;;;;;;5106796;27;40877;-80
2024/01/02 02:50:00;;;;;;;2.28;1.33;;;;;;;;;;5088996;27;40445;-80
2024/01/02 02:52:29;;;;;;;2.95;1.48;;;;;;;;;;5106988;27;40314;-80
2024/01/02 02:54:57;;;;;;;3.25;1.15;;;;;;;;;;5106849;27;41131;-79
2024/01/02 02:57:26;;;;;;;2.03;1.13;;;;;;;;;;5087056;27;41526;-80
2024/01/02 02:59:54;;;;;;;3.65;1.48;;;;;;;;;;5088915;28;39811;-79
2024/01/02 03:02:22;;;;;;;3.08;1.42;;;;;;;;;;5105592;27;42652;-80
2024/01/02 03:04:50;;;;;;;3.65;1.10;;;;;;;;;;5108152;27;42849;-80
2024/01/02 03:07:19;;;;;;;1.85;1.13;;;;;;;;;;5108228;27;40782;-80
2024/01/02 03:09:47;;;;;;;4.47;1.38;;;;;;;;;;5097279;27;41551;-80
2024/01/02 03:12:15;;;;;;;2.05;1.15;;;;;;;;;;5106506;27;40376;-80
2024/01/02 03:14:44;;;;;;;3.08;1.35;;;;;;;;;;5106028;27;41490;-80
2024/01/02 03:17:12;;;;;;;2.75;1.20;;;;;;;;;;5104925;27;41588;-80
2024/01/02 03:19:40;;;;;;;2.95;1.30;;;;;;;;;;5105953;27;40800;-80
2024/01/02 03:22:08;;;;;;;4.28;1.30;;;;;;;;;;5099495;28;41141;-80
2024/01/02 03:24:36;;;;;;;3.95;1.08;;;;;;;;;;5104983;27;41494;-79
2024/01/02 03:27:05;;;;;;;2.75;1.10;;;;;;;;;;5107060;27;41082;-80
2024/01/02 03:29:33;;;;;;;3.60;1.35;;;;;;;;;;5104749;27;40866;-79
2024/01/02 03:32:02;;;;;;;4.03;1.30;;;;;;;;;;5107718;27;44393;-80
2024/01/02 03:34:30;;;;;;;2.85;1.10;;;;;;;;;;5106332;27;41673;-80
2024/01/02 03:36:58;;;;;;;2.00;0.77;;;;;;;;;;5106186;27;41955;-80
2024/01/02 03:39:26;;;;;;;2.70;1.17;;;;;;;;;;5106479;27;41374;-79
2024/01/02 03:41:54;;;;;;;1.77;0.95;;;;;;;;;;5106889;27;41251;-80
2024/01/02 03:44:22;;;;;;;2.88;1.02;;;;;;;;;;5105694;27;43014;-80
2024/01/02 03:46:50;;;;;;;3.15;1.45;;;;;;;;;;5107408;27;40403;-80
2024/01/02 03:49:20;;;;;;;1.35;0.90;;;;;;;;;;5105875;27;42207;-80
2024/01/02 03:51:48;;;;;;;2.80;1.15;;;;;;;;;;5105654;27;42276;-80
2024/01/02 03:54:16;;;;;;;2.00;0.85;;;;;;;;;;5107442;27;40273;-80
2024/01/02 03:56:44;;;;;;;1.70;0.90;;;;;;;;;;5119444;27;42240;-80
2024/01/02 03:59:12;;;;;;;1.70;0.80;;;;;;;;;;5105528;27;40314;-80
2024/01/02 04:01:43;;;;;;;2.30;1.05;;;;;;;;;;5105073;27;41416;-80
2024/01/02 04:04:11;;;;;;;2.22;0.80;;;;;;;;;;5103429;27;42038;-80
2024/01/02 04:06:41;;;;;;;1.95;0.98;;;;;;;;;;5106213;27;40190;-80
2024/01/02 04:09:10;;;;;;;2.08;0.90;;;;;;;;;;5092604;27;41406;-79
2024/01/02 04:11:38;;;;;;;1.98;1.10;;;;;;;;;;5105942;27;41723;-80
2024/01/02 04:14:06;;;;;;;1.88;0.90;;;;;;;;;;5105236;27;40179;-80
2024/01/02 04:16:34;;;;;;;0.98;0.65;;;;;;;;;;5107136;27;42296;-80
2024/01/02 04:19:02;;;;;;;3.13;0.82;;;;;;;;;;5105701;27;41742;-80
2024/01/02 04:21:30;;;;;;;1.40;0.88;;;;;;;;;;5105018;27;41518;-80
2024/01/02 04:23:59;;;;;;;2.65;0.93;;;;;;;;;;5104281;27;43323;-80
2024/01/02 04:26:27;;;;;;;2.42;0.90;;;;;;;;;;5104708;27;39921;-80
2024/01/02 04:28:55;;;;;;;2.55;1.00;;;;;;;;;;5104534;27;42609;-80
2024/01/02 04:31:23;;;;;;;2.60;0.93;;;;;;;;;;5103300;27;42091;-80
2024/01/02 04:33:51;;;;;;;2.00;0.60;;;;;;;;;;5107719;27;40984;-80
2024/01/02 04:36:19;;;;;;;1.98;0.65;;;;;;;;;;5109319;27;42135;-80
2024/01/02 04:38:48;;;;;;;1.60;0.82;;;;;;;;;;5109491;27;32168;-80
2024/01/02 04:41:18;;;;;;;2.33;0.80;;;;;;;;;;5090937;28;40125;-80
2024/01/02 04:43:46;;;;;;;0.88;0.65;;;;;;;;;;5092431;27;43114;-80
2024/01/02 04:46:14;;;;;;;2.05;0.70;;;;;;;;;;5109519;28;40314;-80
2024/01/02 04:48:42;;;;;;;2.08;0.60;;;;;;;;;;5106111;28;39621;-80
2024/01/02 04:51:10;;;;;;;1.13;0.60;;;;;;;;;;5108393;27;42392;-80
2024/01/02 04:53:38;;;;;;;1.80;0.73;;;;;;;;;;5109140;27;41127;-80
2024/01/02 04:56:06;;;;;;;1.23;0.60;;;;;;;;;;5108021;27;41647;-80
2024/01/02 04:58:36;;;;;;;2.75;1.17;;;;;;;;;;5101809;27;43240;-80
2024/01/02 05:01:04;;;;;;;1.30;0.60;;;;;;;;;;5109997;27;41737;-80
2024/01/02 05:03:32;;;;;;;1.15;0.65;;;;;;;;;;5108980;27;43142;-80
2024/01/02 05:06:00;;;;;;;1.25;0.68;;;;;;;;;;5107770;27;41259;-80
2024/01/02 05:08:28;;;;;;;0.68;0.40;;;;;;;;;;5109337;27;41394;-80
2024/01/02 05:10:56;;;;;;;1.00;0.60;;;;;;;;;;5090794;28;41505;-80
2024/01/02 05:13:24;;;;;;;1.48;0.43;;;;;;;;;;5109572;27;40945;-80
2024/01/02 05:15:53;;;;;;;1.98;0.80;;;;;;;;;;5108103;27;40939;-80
2024/01/02 05:18:24;;;;;;;0.73;0.50;;;;;;;;;;5107581;28;42812;-80
2024/01/02 05:20:53;;;;;;;2.35;0.70;;;;;;;;;;5105072;27;40852;-80
2024/01/02 05:23:21;;;;;;;0.95;0.60;;;;;;;;;;5100357;27;41722;-80
2024/01/02 05:25:49;;;;;;;0.98;0.40;;;;;;;;;;5109229;27;41018;-80
2024/01/02 05:28:17;;;;;;;1.33;0.70;;;;;;;;;;5108698;27;42332;-80
2024/01/02 05:30:45;;;;;;;0.90;0.55;;;;;;;;;;5109086;27;42471;-80
2024/01/02 05:33:14;;;;;;;1.00;0.40;;;;;;;;;;5109218;28;40143;-80
2024/01/02 05:35:42;;;;;;;1.55;0.52;;;;;;;;;;5108068;27;41045;-80
2024/01/02 05:38:10;;;;;;;0.60;0.40;;;;;;;;;;5109310;27;41544;-80
2024/01/02 05:40:38;;;;;;;1.63;0.70;;;;;;;;;;5106114;27;41097;-80
2024/01/02 05:43:06;;;;;;;1.00;0.30;;;;;;;;;;5107945;27;41372;-80
2024/01/02 05:45:36;;;;;;;0.77;0.43;;;;;;;;;;5108019;27;41830;-80
2024/01/02 05:48:04;;;;;;;1.98;0.68;;;;;;;;;;5108051;27;41611;-80
2024/01/02 05:50:34;;;;;;;1.33;0.50;;;;;;;;;;5108616;27;42328;-80
2024/01/02 05:53:02;;;;;;;0.40;0.30;;;;;;;;;;5107773;27;40584;-80
2024/01/02 05:55:30;;;;;;;0.50;0.30;;;;;;;;;;5107859;27;41753;-79
2024/01/02 05:57:58;;;;;;;0.80;0.40;;;;;;;;;;5107483;27;41586;-79
2024/01/02 06:00:26;;;;;;;0.50;0.40;;;;;;;;;;5089047;27;40453;-79
2024/01/02 06:02:54;;;;;;;0.60;0.40;;;;;;;;;;5107433;27;42021;-80
2024/01/02 06:05:22;;;;;;;0.82;0.40;;;;;;;;;;5108712;27;42094;-80
2024/01/02 06:07:51;;;;;;;0.70;0.30;;;;;;;;;;5108016;28;42600;-79
2024/01/02 06:10:19;;;;;;;0.82;0.40;;;;;;;;;;5106345;27;42312;-79
2024/01/02 06:12:47;;;;;;;0.75;0.40;;;;;;;;;;5107492;27;39937;-80
2024/01/02 06:15:15;;;;;;;0.85;0.30;;;;;;;;;;5095259;27;43044;-79
2024/01/02 06:17:46;;;;;;;0.50;0.30;;;;;;;;;;5105698;27;42016;-79
2024/01/02 06:20:14;;;;;;;0.25;0.22;;;;;;;;;;5097503;27;40411;-79
2024/01/02 06:22:43;;;;;;;0.75;0.45;;;;;;;;;;5105722;27;41248;-79
2024/01/02 06:25:12;;;;;;;0.50;0.20;;;;;;;;;;5106772;27;43167;-79
2024/01/02 06:27:40;;;;;;;0.82;0.30;;;;;;;;;;5107297;27;40049;-79
2024/01/02 06:30:09;;;;;;;0.47;0.30;;;;;;;;;;5108025;27;42147;-79
2024/01/02 06:32:37;;;;;;;1.17;0.30;;;;;;;;;;5106811;27;41985;-80
2024/01/02 06:35:05;;;;;;;1.20;0.50;;;;;;;;;;5107938;27;41671;-79
2024/01/02 06:37:33;;;;;;;0.35;0.30;;;;;;;;;;5107459;27;42860;-79
2024/01/02 06:40:01;;;;;;;0.45;0.30;;;;;;;;;;5106534;27;40278;-80
2024/01/02 06:42:30;;;;;;;0.95;0.30;;;;;;;;;;5107488;27;42558;-79
2024/01/02 06:44:58;;;;;;;0.28;0.28;;;;;;;;;;5107507;27;42274;-79
2024/01/02 06:47:27;;;;;;;0.30;0.20;;;;;;;;;;5107094;27;41325;-79
2024/01/02 06:49:55;;;;;;;0.20;0.20;;;;;;;;;;5107773;27;41900;-79
2024/01/02 06:52:23;;;;;;;0.30;0.20;;;;;;;;;;5104833;27;42027;-79
2024/01/02 06:54:51;;;;;;;0.20;0.20;;;;;;;;;;5106530;27;41897;-80
2024/01/02 06:57:19;;;;;;;0.50;0.35;;;;;;;;;;5085981;28;42114;-80
2024/01/02 06:59:48;;;;;;;0.38;0.30;;;;;;;;;;5086601;28;40390;-80
2024/01/02 07:02:16;;;;;;;0.35;0.30;;;;;;;;;;5086538;28;41547;-80
2024/01/02 07:04:44;;;;;;;0.73;0.35;;;;;;;;;;5087289;28;42672;-80
2024/01/02 07:07:12;;;;;;;0.55;0.30;;;;;;;;;;5085783;28;41399;-80
2024/01/02 07:09:40;;;;;;;3.70;0.40;;;;;;;;;;5087250;28;42271;-80
2024/01/02 07:12:08;;;;;;;0.50;0.30;;;;;;;;;;5086219;28;41383;-80
2024/01/02 07:14:37;;;;;;;0.70;0.50;;;;;;;;;;5086437;28;42440;-80
2024/01/02 07:17:09;;;;;;;0.20;0.20;;;;;;;;;;5084426;28;41961;-80
2024/01/02 07:19:37;;;;;;;0.60;0.30;;;;;;;;;;5085104;28;40445;-80
2024/01/02 07:22:05;;;;;;;0.50;0.40;;;;;;;;;;5083779;28;41258;-80
2024/01/02 07:24:34;;;;;;;0.60;0.30;;;;;;;;;;5085769;28;42819;-80
2024/01/02 07:27:02;;;;;;;1.02;0.40;;;;;;;;;;5082239;28;40204;-80
2024/01/02 07:29:30;;;;;;;0.40;0.30;;;;;;;;;;5087115;28;42283;-80
2024/01/02 07:31:58;;;;;;;0.52;0.30;;;;;;;;;;5099014;28;43122;-80
2024/01/02 07:34:27;;;;;;;1.60;0.80;;;;;;;;;;5092470;28;41636;-80
2024/01/02 07:36:55;;;;;;;0.82;0.50;;;;;;;;;;5085093;28;41941;-80
2024/01/02 07:39:23;;;;;;;0.55;0.50;;;;;;;;;;5076016;28;39174;-80
2024/01/02 07:41:51;;;;;;;0.52;0.50;;;;;;;;;;5083724;28;41602;-80
2024/01/02 07:44:19;;;;;;;1.15;0.73;;;;;;;;;;5079297;28;43295;-80
2024/01/02 07:46:47;;;;;;;0.70;0.63;;;;;;;;;;5079078;28;41217;-79
2024/01/02 07:49:16;;;;;;;1.17;0.70;;;;;;;;;;5079607;28;42310;-80
2024/01/02 07:51:46;;;;;;;1.65;0.80;;;;;;;;;;5089727;28;42660;-80
2024/01/02 07:54:14;;;;;;;1.23;0.80;;;;;;;;;;5087839;28;40180;-80
2024/01/02 07:56:42;;;;;;;1.58;0.75;;;;;;;;;;5068134;27;41413;-80
2024/01/02 07:59:11;;;;;;;1.63;0.68;;;;;;;;;;5111829;27;40352;-80
2024/01/02 08:01:39;;;;;;;1.00;0.90;;;;;;;;;;5105464;27;41013;-80
2024/01/02 08:04:07;;;;;;;2.28;1.13;;;;;;;;;;5108787;27;42132;-79
2024/01/02 08:06:35;;;;;;;1.35;0.80;;;;;;;;;;5106031;27;40441;-79
2024/01/02 08:09:04;;;;;;;2.58;1.02;;;;;;;;;;5123189;27;41220;-79
2024/01/02 08:11:32;;;;;;;2.53;0.77;;;;;;;;;;5123546;27;42777;-79
2024/01/02 08:14:00;;;;;;;2.38;1.00;;;;;;;;;;5103378;27;39994;-79
2024/01/02 08:16:28;;;;;;;5.93;1.63;;;;;;;;;;5108493;27;41466;-78
2024/01/02 08:18:56;;;;;;;3.92;1.10;;;;;;;;;;5112804;27;41310;-79
2024/01/02 08:21:24;;;;;;;6.65;1.45;;;;;;;;;;5101528;27;41755;-78
2024/01/02 08:23:52;;;;;;;4.00;1.05;;;;;;;;;;5101154;27;43036;-79
2024/01/02 08:26:22;;;;;;;8.75;1.60;;;;;;;;;;5115447;27;40222;-79
2024/01/02 08:28:50;;;;;;;3.22;0.82;;;;;;;;;;5103936;27;41581;-76
2024/01/02 08:31:18;;;;;;;3.35;1.02;;;;;;;;;;5108279;27;43124;-75
2024/01/02 08:33:46;;;;;;;6.80;0.80;;;;;;;;;;5108768;27;39557;-75
2024/01/02 08:36:14;;;;;;;10.73;0.85;;;;;;;;;;5104582;27;41812;-73
2024/01/02 08:38:42;;;;;;;3.70;1.20;;;;;;;;;;5095952;27;42849;-75
2024/01/02 08:41:10;;;;;;;3.28;1.10;;;;;;;;;;5111085;27;41764;-75
2024/01/02 08:43:39;;;;;;;6.57;1.20;;;;;;;;;;5094347;27;42215;-76
2024/01/02 08:46:07;;;;;;;7.75;1.10;;;;;;;;;;5091135;27;40299;-75
2024/01/02 08:48:35;;;;;;;4.10;1.13;;;;;;;;;;5108463;27;41196;-75
2024/01/02 08:51:04;;;;;;;5.43;1.10;;;;;;;;;;5087831;27;42548;-74
2024/01/02 08:53:32;;;;;;;3.22;1.30;;;;;;;;;;5121482;27;39883;-75
2024/01/02 08:56:00;;;;;;;7.15;1.50;;;;;;;;;;5109599;27;41226;-76
2024/01/02 08:58:28;;;;;;;4.85;1.48;;;;;;;;;;5106444;27;41742;-76
2024/01/02 09:00:58;;;;;;;3.03;1.23;;;;;;;;;;5100781;27;41831;-73
2024/01/02 09:03:28;;;;;;;6.28;1.35;;;;;;;;;;5109879;27;41944;-73
2024/01/02 09:05:56;;;;;;;8.57;2.20;;;;;;;;;;5108316;27;39997;-74
2024/01/02 09:08:24;;;;;;;4.50;1.55;;;;;;;;;;5087712;27;39665;-75
2024/01/02 09:10:52;;;;;;;5.00;1.35;;;;;;;;;;5108438;27;41798;-74
2024/01/02 09:13:22;;;;;;;3.90;1.63;;;;;;;;;;5104566;27;40706;-73
2024/01/02 09:15:50;;;;;;;4.85;1.20;;;;;;;;;;5110315;27;41176;-78
2024/01/02 09:18:19;;;;;;;5.68;1.90;;;;;;;;;;5110160;27;42541;-74
2024/01/02 09:20:47;;;;;;;4.13;1.73;;;;;;;;;;5107151;27;41007;-76
2024/01/02 09:23:17;;;;;;;4.68;1.30;;;;;;;;;;5091547;28;40664;-75
2024/01/02 09:25:45;;;;;;;6.53;1.58;;;;;;;;;;5109135;27;40946;-78
2024/01/02 09:28:13;;;;;;;6.97;1.85;;;;;;;;;;5109123;27;42443;-75
2024/01/02 09:30:48;;;;;;;7.95;1.90;;;;;;;;;;5096651;27;43035;-77
2024/01/02 09:33:17;;;;;;;8.27;2.17;;;;;;;;;;5110565;28;41283;-76
2024/01/02 09:35:55;;;;;;;4.63;1.15;;;;;;;;;;5109216;27;41293;-76
2024/01/02 09:38:23;;;;;;;6.18;1.38;;;;;;;;;;5099857;27;42722;-76
2024/01/02 09:41:13;;;;;;;4.68;1.52;;;;;;;;;;5105927;27;40274;-80
2024/01/02 09:43:41;;;;;;;11.32;2.28;;;;;;;;;;5106057;28;41331;-76
2024/01/02 09:46:12;;;;;;;4.82;1.45;;;;;;;;;;5108603;27;40802;-76
2024/01/02 09:48:42;;;;;;;6.50;1.63;;;;;;;;;;5105327;27;41883;-77
2024/01/02 09:51:14;;;;;;;4.03;1.30;;;;;;;;;;5108403;27;41673;-76
2024/01/02 09:53:50;;;;;;;3.67;1.50;;;;;;;;;;5104307;27;41425;-72
2024/01/02 09:56:20;;;;;;;3.75;1.30;;;;;;;;;;5106527;27;41752;-75
2024/01/02 09:58:51;;;;;;;4.93;1.60;;;;;;;;;;5101910;27;42244;-75
2024/01/02 10:01:20;;;;;;;5.32;1.40;;;;;;;;;;5103128;27;40362;-74
2024/01/02 10:03:52;;;;;;;7.32;1.67;;;;;;;;;;5106142;27;41284;-73
2024/01/02 10:06:31;;;;;;;6.05;1.50;;;;;;;;;;5109979;27;42437;-75
2024/01/02 10:09:10;;;;;;;6.63;1.65;;;;;;;;;;5111596;27;42176;-74
2024/01/02 10:11:41;;;;;;;7.20;1.60;;;;;;;;;;5106419;28;41640;-76
2024/01/02 10:14:11;;;;;;;6.10;1.85;;;;;;;;;;5108391;27;39893;-76
2024/01/02 10:16:42;;;;;;;6.45;1.88;;;;;;;;;;5102233;27;42669;-79
2024/01/02 10:19:14;;;;;;;4.50;1.50;;;;;;;;;;5104156;27;43318;-78
2024/01/02 10:21:46;;;;;;;6.03;1.90;;;;;;;;;;5106041;27;40228;-82
2024/01/02 10:24:19;;;;;;;5.18;1.83;;;;;;;;;;5106969;27;41581;-79
2024/01/02 10:26:50;;;;;;;8.20;2.03;;;;;;;;;;5089384;27;41428;-77
2024/01/02 10:29:19;;;;;;;3.63;1.50;;;;;;;;;;5104847;27;40452;-78
2024/01/02 10:31:50;;;;;;;6.03;1.63;;;;;;;;;;5094099;27;42774;-77
2024/01/02 10:34:20;;;;;;;6.07;1.63;;;;;;;;;;5100433;27;40900;-76
2024/01/02 10:36:52;;;;;;;4.53;1.60;;;;;;;;;;5107097;27;42127;-79
2024/01/02 10:39:22;;;;;;;6.22;1.92;;;;;;;;;;5111066;27;41880;-79
2024/01/02 10:41:51;;;;;;;6.25;1.88;;;;;;;;;;5106733;27;39813;-80
2024/01/02 10:44:22;;;;;;;5.72;1.90;;;;;;;;;;5105749;27;41758;-80
2024/01/02 10:46:56;;;;;;;4.43;1.60;;;;;;;;;;5107523;27;41399;-80
2024/01/02 10:49:24;;;;;;;9.63;2.17;;;;;;;;;;5109496;27;41263;-80
2024/01/02 10:51:58;;;;;;;5.00;2.00;;;;;;;;;;5109341;27;41655;-81
2024/01/02 10:54:29;;;;;;;5.50;2.40;;;;;;;;;;5105591;27;40426;-80
2024/01/02 10:56:58;;;;;;;4.57;1.65;;;;;;;;;;5105055;27;41553;-80
2024/01/02 10:59:30;;;;;;;4.00;1.67;;;;;;;;;;5110814;27;20259;-80
2024/01/02 11:01:59;;;;;;;4.78;1.70;;;;;;;;;;5110786;27;40350;-83
2024/01/02 11:04:31;;;;;;;3.97;1.67;;;;;;;;;;5106620;27;41383;-83
2024/01/02 11:07:01;;;;;;;3.58;1.95;;;;;;;;;;5103995;27;41710;-77
2024/01/02 11:09:32;;;;;;;3.95;1.90;;;;;;;;;;5104179;27;41378;-79
2024/01/02 11:12:00;;;;;;;6.55;1.88;;;;;;;;;;5111734;27;41166;-79
2024/01/02 11:14:41;;;;;;;6.43;1.85;;;;;;;;;;5107115;27;41116;-78
2024/01/02 11:17:10;;;;;;;4.45;2.22;;;;;;;;;;5105864;27;41631;-76
2024/01/02 11:19:42;;;;;;;4.22;1.98;;;;;;;;;;5106046;27;43737;-80
2024/01/02 11:22:12;;;;;;;7.07;2.00;;;;;;;;;;5112597;27;40010;-76
2024/01/02 11:24:49;;;;;;;5.18;1.90;;;;;;;;;;5092252;27;40089;-78
2024/01/02 11:27:17;;;;;;;7.93;2.15;;;;;;;;;;5096280;27;43769;-80
2024/01/02 11:29:47;;;;;;;5.70;1.70;;;;;;;;;;5106982;27;40394;-77
2024/01/02 11:32:16;;;;;;;4.22;1.60;;;;;;;;;;5106790;27;42271;-77
2024/01/02 11:34:49;;;;;;;3.80;1.40;;;;;;;;;;5105553;27;41516;-83
2024/01/02 11:37:23;;;;;;;5.00;2.22;;;;;;;;;;5104395;27;41626;-83
2024/01/02 11:39:54;;;;;;;2.28;1.35;;;;;;;;;;5100162;27;42565;-76
2024/01/02 11:42:25;;;;;;;3.45;1.50;;;;;;;;;;5102272;27;40363;-79
2024/01/02 11:44:57;;;;;;;4.22;1.80;;;;;;;;;;5097616;27;41372;-78
2024/01/02 11:47:29;;;;;;;4.80;1.55;;;;;;;;;;5104271;27;41284;-80
2024/01/02 11:49:58;;;;;;;2.80;1.33;;;;;;;;;;5102149;27;40994;-78
2024/01/02 11:52:27;;;;;;;3.10;1.67;;;;;;;;;;5109816;27;42065;-85
2024/01/02 11:54:59;;;;;;;1.70;1.15;;;;;;;;;;5108783;27;41810;-84
2024/01/02 11:57:28;;;;;;;3.13;1.70;;;;;;;;;;5085251;28;41159;-76
2024/01/02 11:59:58;;;;;;;3.83;1.40;;;;;;;;;;5087370;28;41972;-78
2024/01/02 12:02:27;;;;;;;3.75;0.98;;;;;;;;;;5076050;28;40045;-85
2024/01/02 12:04:58;;;;;;;3.10;1.30;;;;;;;;;;5079639;28;40951;-82
2024/01/02 12:07:30;;;;;;;4.03;1.17;;;;;;;;;;5077043;28;41760;-83
2024/01/02 12:09:57;;;;;;;2.13;1.08;;;;;;;;;;5078117;28;40347;-84
2024/01/02 12:12:32;;;;;;;5.95;1.40;;;;;;;;;;5089403;28;41510;-80
2024/01/02 12:15:04;;;;;;;4.10;1.35;;;;;;;;;;5087326;28;42930;-83
2024/01/02 12:17:33;;;;;;;1.95;0.90;;;;;;;;;;5077240;28;39939;-83
2024/01/02 12:20:04;;;;;;;2.95;1.13;;;;;;;;;;5090039;28;42408;-80
2024/01/02 12:22:34;;;;;;;3.45;1.40;;;;;;;;;;5079324;28;41877;-76
2024/01/02 12:25:02;;;;;;;6.05;1.65;;;;;;;;;;5095871;28;41064;-78
2024/01/02 12:27:42;;;;;;;4.18;1.80;;;;;;;;;;5060931;28;41158;-78
2024/01/02 12:30:12;;;;;;;5.95;1.38;;;;;;;;;;5081065;28;40004;-79
2024/01/02 12:32:52;;;;;;;3.10;1.33;;;;;;;;;;5085733;28;41194;-79
2024/01/02 12:35:25;;;;;;;4.30;1.10;;;;;;;;;;5086397;28;41750;-79
2024/01/02 12:37:58;;;;;;;4.97;1.42;;;;;;;;;;5086344;28;40418;-77
2024/01/02 12:40:27;;;;;;;2.85;1.30;;;;;;;;;;5086955;28;41419;-78
2024/01/02 12:43:05;;;;;;;5.55;1.13;;;;;;;;;;5090005;28;41700;-77
2024/01/02 12:45:33;;;;;;;3.85;1.00;;;;;;;;;;5086123;28;41469;-77
2024/01/02 12:48:02;;;;;;;3.20;1.20;;;;;;;;;;5086080;28;41922;-77
2024/01/02 12:50:31;;;;;;;2.40;1.15;;;;;;;;;;5081533;28;40820;-77
2024/01/02 12:53:02;;;;;;;1.85;1.23;;;;;;;;;;5080776;28;42557;-77
2024/01/02 12:55:31;;;;;;;2.72;1.40;;;;;;;;;;5091753;27;42919;-76
2024/01/02 12:57:59;;;;;;;2.33;1.23;;;;;;;;;;5093664;27;40041;-77
2024/01/02 13:00:29;;;;;;;6.47;1.20;;;;;;;;;;5098942;27;40607;-76
2024/01/02 13:02:57;;;;;;;1.67;0.98;;;;;;;;;;5106423;27;42019;-78
2024/01/02 13:05:26;;;;;;;2.45;1.00;;;;;;;;;;5112909;27;39889;-77
2024/01/02 13:07:54;;;;;;;1.83;0.90;;;;;;;;;;5091218;27;40451;-78
2024/01/02 13:10:24;;;;;;;2.63;0.80;;;;;;;;;;5114197;27;40232;-79
2024/01/02 13:12:53;;;;;;;1.48;0.60;;;;;;;;;;5108279;27;41395;-77
2024/01/02 13:15:22;;;;;;;2.75;0.80;;;;;;;;;;5107854;27;42136;-78
2024/01/02 13:17:50;;;;;;;2.97;0.98;;;;;;;;;;5116325;27;40969;-80
2024/01/02 13:20:21;;;;;;;2.42;0.82;;;;;;;;;;5096562;27;41609;-78
2024/01/02 13:22:49;;;;;;;1.88;1.10;;;;;;;;;;5117244;27;41576;-80
2024/01/02 13:25:18;;;;;;;2.97;0.80;;;;;;;;;;5110476;27;40357;-79
2024/01/02 13:27:49;;;;;;;1.27;0.80;;;;;;;;;;5091677;27;40816;-76
2024/01/02 13:30:19;;;;;;;3.40;1.10;;;;;;;;;;5092634;27;41381;-74
2024/01/02 13:32:51;;;;;;;4.82;1.10;;;;;;;;;;5102233;27;41669;-77
2024/01/02 13:35:20;;;;;;;3.88;0.60;;;;;;;;;;5104381;27;42782;-76
2024/01/02 13:37:49;;;;;;;4.18;0.93;;;;;;;;;;5099861;27;41552;-77
2024/01/02 13:40:21;;;;;;;6.07;0.80;;;;;;;;;;5103396;27;40856;-78
2024/01/02 13:42:56;;;;;;;7.25;1.00;;;;;;;;;;5094802;27;41757;-78
2024/01/02 13:45:25;;;;;;;8.38;1.30;;;;;;;;;;5108009;27;39750;-75
2024/01/02 13:47:54;;;;;;;6.88;0.60;;;;;;;;;;5107926;27;41854;-78
2024/01/02 13:50:27;;;;;;;2.15;0.60;;;;;;;;;;5107784;27;40736;-81
2024/01/02 13:53:00;;;;;;;3.00;0.40;;;;;;;;;;5096007;27;41788;-76
2024/01/02 13:55:28;;;;;;;5.53;1.10;;;;;;;;;;5093466;27;42927;-77
2024/01/02 13:58:01;;;;;;;23.20;1.50;;;;;;;;;;5085917;28;41485;-74
2024/01/02 14:00:29;;;;;;;8.80;1.33;;;;;;;;;;5087449;28;41576;-72
2024/01/02 14:02:57;;;;;;;12.43;1.10;;;;;;;;;;5086648;28;41642;-72
2024/01/02 14:05:27;;;;;;;7.63;1.17;;;;;;;;;;5087077;28;39536;-78
2024/01/02 14:07:55;;;;;;;12.35;0.90;;;;;;;;;;5069676;28;41669;-76
2024/01/02 14:10:25;;;;;;;7.93;0.82;;;;;;;;;;5075247;28;42082;-79
2024/01/02 14:12:54;;;;;;;5.22;0.52;;;;;;;;;;5071786;28;42114;-78
2024/01/02 14:15:24;;;;;;;8.05;0.98;;;;;;;;;;5080891;28;41747;-76
2024/01/02 14:17:56;;;;;;;4.05;0.90;;;;;;;;;;5075513;28;40891;-80
2024/01/02 14:20:24;;;;;;;8.68;0.70;;;;;;;;;;5079854;28;42212;-76
2024/01/02 14:22:55;;;;;;;6.90;0.85;;;;;;;;;;5084121;28;41896;-76
2024/01/02 14:25:27;;;;;;;3.20;0.77;;;;;;;;;;5079570;28;40072;-79
2024/01/02 14:27:56;;;;;;;4.85;0.60;;;;;;;;;;5076356;28;41221;-76
2024/01/02 14:30:29;;;;;;;6.35;0.63;;;;;;;;;;5079802;28;42695;-77
2024/01/02 14:33:12;;;;;;;4.10;0.57;;;;;;;;;;5078468;28;41320;-78
2024/01/02 14:35:43;;;;;;;2.22;0.55;;;;;;;;;;5076042;28;43025;-78
2024/01/02 14:38:12;;;;;;;3.28;0.63;;;;;;;;;;5059204;28;40028;-77
2024/01/02 14:40:49;;;;;;;4.30;0.57;;;;;;;;;;5087254;28;41580;-78
2024/01/02 14:43:23;;;;;;;2.72;0.60;;;;;;;;;;5083807;28;43242;-78
2024/01/02 14:45:52;;;;;;;2.45;0.82;;;;;;;;;;5084536;28;40170;-78
2024/01/02 14:48:22;;;;;;;3.20;1.00;;;;;;;;;;5083823;28;41387;-77
2024/01/02 14:50:56;;;;;;;5.20;0.60;;;;;;;;;;5085967;28;41680;-78
2024/01/02 14:53:29;;;;;;;0.50;0.50;;;;;;;;;;5082002;28;40712;-78
2024/01/02 14:56:08;;;;;;;2.08;0.47;;;;;;;;;;5096707;28;42106;-76